Time;durP1;ratioP1;P1;durP2;ratioP2;P2;SDS_P1;SDS_P2;PMS_P1;PMS_P2;Temp;Humidity;BMP_temperature;BMP_pressure;BME280_temperature;BME280_humidity;BME280_pressure;Samples;Min_cycle;Max_cycle;Signal;HPM_P1;HPM_P2
2022/01/20 00:02:16;;;;;;;10.25;1.45;;;4.40;99.90;;;;;;5051453;28;20475;-74
2022/01/20 00:26:03;;;;;;;9.05;1.50;;;4.50;99.90;;;;;;5067641;28;20037;-74
2022/01/20 00:28:44;;;;;;;10.77;1.90;;;4.50;99.90;;;;;;5049702;28;20045;-74
2022/01/20 00:38:42;;;;;;;8.70;1.60;;;4.40;99.90;;;;;;5072088;28;20117;-76
2022/01/20 00:41:14;;;;;;;8.25;1.60;;;4.40;99.90;;;;;;5054098;28;20059;-77
2022/01/20 00:43:41;;;;;;;8.68;1.38;;;4.40;99.90;;;;;;5065054;28;20129;-77
2022/01/20 00:46:06;;;;;;;;;;;4.30;99.90;;;;;;5054906;28;20506;-76
2022/01/20 00:48:32;;;;;;;10.27;1.73;;;4.30;99.90;;;;;;5068341;28;19924;-77
2022/01/20 00:50:58;;;;;;;11.35;2.03;;;4.30;99.90;;;;;;5063130;28;20134;-77
2022/01/20 00:53:24;;;;;;;11.63;2.10;;;4.30;99.90;;;;;;5053090;28;20141;-77
2022/01/20 00:55:50;;;;;;;11.85;1.80;;;4.30;99.90;;;;;;5070668;28;20047;-77
2022/01/20 00:58:16;;;;;;;14.05;1.88;;;4.30;99.90;;;;;;5067492;28;20040;-77
2022/01/20 01:00:42;;;;;;;12.18;1.92;;;4.30;99.90;;;;;;5053348;28;20033;-77
2022/01/20 01:03:08;;;;;;;14.48;2.17;;;4.30;99.90;;;;;;5067471;28;20041;-77
2022/01/20 01:05:40;;;;;;;17.55;2.03;;;4.40;99.90;;;;;;5072540;28;20047;-77
2022/01/20 01:08:07;;;;;;;13.60;1.80;;;4.50;99.90;;;;;;5067787;28;20487;-77
2022/01/20 01:10:38;;;;;;;7.60;1.70;;;4.70;99.90;;;;;;5068943;28;20064;-77
2022/01/20 01:13:10;;;;;;;8.80;1.30;;;4.50;99.90;;;;;;5066183;28;20048;-76
2022/01/20 01:15:40;;;;;;;7.72;1.00;;;4.30;99.90;;;;;;5053101;28;20044;-77
2022/01/20 01:23:36;;;;;;;8.50;1.30;;;4.00;99.90;;;;;;5073097;28;20048;-77
2022/01/20 01:26:08;;;;;;;7.85;1.33;;;4.00;99.90;;;;;;5062093;28;20376;-77
2022/01/20 01:28:37;;;;;;;6.30;1.45;;;4.10;99.90;;;;;;5075143;28;20115;-77
2022/01/20 01:33:38;;;;;;;10.07;1.35;;;4.00;99.90;;;;;;5066559;28;20072;-77
2022/01/20 01:36:07;;;;;;;6.80;1.40;;;4.00;99.90;;;;;;5063296;28;20106;-76
2022/01/20 01:38:38;;;;;;;9.13;1.40;;;4.00;99.90;;;;;;5065740;28;20128;-77
2022/01/20 01:41:11;;;;;;;6.68;1.13;;;4.10;99.90;;;;;;5070468;28;20063;-77
2022/01/20 01:43:41;;;;;;;4.68;1.10;;;4.00;99.90;;;;;;5053482;28;20498;-77
2022/01/20 01:46:08;;;;;;;9.48;1.30;;;4.00;99.90;;;;;;5065791;28;20036;-76
2022/01/20 01:48:35;;;;;;;7.68;1.13;;;4.10;99.90;;;;;;5068837;28;20044;-77
2022/01/20 01:51:00;;;;;;;3.90;0.88;;;4.10;99.90;;;;;;5068187;28;20063;-76
2022/01/20 01:53:27;;;;;;;6.72;0.95;;;4.10;99.90;;;;;;5069661;28;20491;-76
2022/01/20 01:55:53;;;;;;;13.73;2.25;;;4.10;99.90;;;;;;5070214;28;20109;-76
2022/01/20 01:58:19;;;;;;;8.88;1.77;;;4.20;99.90;;;;;;5068637;28;20539;-76
2022/01/20 02:00:45;;;;;;;12.82;1.75;;;4.30;99.90;;;;;;5067642;28;20045;-76
2022/01/20 02:03:13;;;;;;;11.63;1.60;;;4.30;99.90;;;;;;5049145;28;20043;-77
2022/01/20 02:05:56;;;;;;;10.13;1.70;;;4.40;99.90;;;;;;5050769;28;20050;-76
2022/01/20 02:08:35;;;;;;;12.07;1.80;;;4.30;99.90;;;;;;5062360;28;20036;-76
2022/01/20 02:19:16;;;;;;;13.38;1.65;;;4.30;99.90;;;;;;5063552;28;20041;-74
2022/01/20 02:21:50;;;;;;;14.10;2.40;;;4.30;99.90;;;;;;5062405;28;20044;-74
2022/01/20 02:24:16;;;;;;;11.70;2.13;;;4.00;99.90;;;;;;5068450;28;20044;-74
2022/01/20 02:26:42;;;;;;;13.07;1.80;;;3.60;99.90;;;;;;5074387;28;20045;-74
2022/01/20 02:29:08;;;;;;;8.95;1.73;;;3.40;99.90;;;;;;5050063;28;20083;-74
2022/01/20 02:31:34;;;;;;;12.80;1.90;;;3.30;99.90;;;;;;5032918;28;20056;-75
2022/01/20 02:34:00;;;;;;;15.10;1.98;;;3.30;99.90;;;;;;5044720;28;20052;-75
2022/01/20 02:36:27;;;;;;;15.15;2.40;;;3.50;99.90;;;;;;5053996;28;20112;-75
2022/01/20 02:39:01;;;;;;;12.70;2.20;;;3.50;99.90;;;;;;5069643;28;20080;-75
2022/01/20 02:46:55;;;;;;;22.30;2.75;;;3.70;99.90;;;;;;5066126;28;20044;-75
2022/01/20 02:49:21;;;;;;;16.50;2.80;;;3.80;99.90;;;;;;5033590;28;20041;-75
2022/01/20 02:51:49;;;;;;;15.32;2.53;;;3.90;99.90;;;;;;5063711;28;20048;-76
2022/01/20 02:54:15;;;;;;;15.95;2.75;;;3.90;99.90;;;;;;5067667;28;20044;-75
2022/01/20 02:56:40;;;;;;;13.55;2.90;;;4.00;99.90;;;;;;5048306;28;20044;-75
2022/01/20 02:59:06;;;;;;;20.70;3.13;;;4.00;99.90;;;;;;5060402;28;20037;-75
2022/01/20 03:01:32;;;;;;;18.05;3.70;;;4.10;99.90;;;;;;5064073;28;20123;-75
2022/01/20 03:04:00;;;;;;;19.20;4.03;;;4.20;99.90;;;;;;5051976;28;20075;-75
2022/01/20 03:06:26;;;;;;;24.30;2.92;;;4.30;99.90;;;;;;5086882;28;20114;-75
2022/01/20 03:08:51;;;;;;;18.95;2.60;;;4.30;99.90;;;;;;5066962;28;20131;-74
2022/01/20 03:11:17;;;;;;;18.17;2.95;;;4.30;99.90;;;;;;5067917;28;20105;-74
2022/01/20 03:13:43;;;;;;;17.63;3.03;;;4.20;99.90;;;;;;5065624;28;20048;-75
2022/01/20 03:16:09;;;;;;;20.30;3.00;;;4.20;99.90;;;;;;5067138;28;20036;-75
2022/01/20 03:18:35;;;;;;;18.30;3.28;;;4.10;99.90;;;;;;5076720;28;20047;-74
2022/01/20 03:21:00;;;;;;;21.55;3.67;;;4.10;99.90;;;;;;5062068;28;20040;-74
2022/01/20 03:23:26;;;;;;;21.35;3.35;;;4.10;99.90;;;;;;5032126;28;20599;-74
2022/01/20 03:25:52;;;;;;;17.85;3.80;;;4.10;99.90;;;;;;5042575;28;20029;-75
2022/01/20 03:28:17;;;;;;;17.90;2.80;;;4.00;99.90;;;;;;5073821;28;20075;-75
2022/01/20 03:30:43;;;;;;;16.35;2.60;;;4.00;99.90;;;;;;5049751;28;20067;-75
2022/01/20 03:33:09;;;;;;;15.55;2.38;;;4.00;99.90;;;;;;5050892;28;20048;-74
2022/01/20 03:35:35;;;;;;;11.10;2.30;;;4.00;99.90;;;;;;5051885;28;20051;-74
2022/01/20 03:38:01;;;;;;;14.88;2.28;;;4.10;99.90;;;;;;5056900;28;20059;-74
2022/01/20 03:40:27;;;;;;;9.32;1.50;;;4.20;99.90;;;;;;5034724;28;20040;-75
2022/01/20 03:42:53;;;;;;;9.02;1.95;;;4.20;99.90;;;;;;5068292;28;20041;-74
2022/01/20 03:45:19;;;;;;;9.00;2.08;;;4.30;99.90;;;;;;5051976;28;20453;-72
2022/01/20 03:47:45;;;;;;;11.23;1.77;;;4.30;99.90;;;;;;5036630;28;20051;-72
2022/01/20 03:50:59;;;;;;;9.38;1.80;;;4.20;99.90;;;;;;5049302;28;20052;-74
2022/01/20 03:52:56;;;;;;;14.02;2.30;;;4.20;99.90;;;;;;5054469;28;20518;-74
2022/01/20 03:55:22;;;;;;;8.93;1.70;;;4.10;99.90;;;;;;5061422;28;20041;-74
2022/01/20 03:57:48;;;;;;;9.77;2.10;;;4.10;99.90;;;;;;5048638;28;20364;-74
2022/01/20 04:00:14;;;;;;;6.72;1.88;;;4.00;99.90;;;;;;5034505;28;20044;-72
2022/01/20 04:02:40;;;;;;;9.68;2.08;;;4.00;99.90;;;;;;5069442;28;20365;-72
2022/01/20 04:05:06;;;;;;;8.35;1.80;;;3.90;99.90;;;;;;5043997;28;20033;-72
2022/01/20 04:07:32;;;;;;;7.90;1.88;;;3.80;99.90;;;;;;5034168;28;20575;-72
2022/01/20 04:09:58;;;;;;;8.70;1.88;;;3.70;99.90;;;;;;5034024;28;20139;-72
2022/01/20 04:12:23;;;;;;;9.13;1.60;;;3.80;99.90;;;;;;5068062;28;20041;-73
2022/01/20 04:14:49;;;;;;;9.05;2.08;;;3.90;98.80;;;;;;5062601;28;20101;-73
2022/01/20 04:17:20;;;;;;;8.15;1.63;;;3.90;99.90;;;;;;5066137;28;20048;-73
2022/01/20 04:19:46;;;;;;;10.10;1.42;;;3.90;99.90;;;;;;5060767;28;20732;-73
2022/01/20 04:22:12;;;;;;;9.45;2.08;;;3.90;99.90;;;;;;5067719;28;20033;-73
2022/01/20 04:24:38;;;;;;;11.35;1.95;;;3.80;99.90;;;;;;5068492;28;20047;-73
2022/01/20 04:27:04;;;;;;;9.25;2.33;;;3.90;99.90;;;;;;5035981;28;20510;-73
2022/01/20 04:29:31;;;;;;;;;;;3.90;99.90;;;;;;5051011;28;20068;-73
2022/01/20 04:31:57;;;;;;;10.93;2.50;;;4.00;99.90;;;;;;5067473;28;19916;-73
2022/01/20 04:34:23;;;;;;;10.32;1.80;;;4.10;99.90;;;;;;5064769;28;20040;-73
2022/01/20 04:36:51;;;;;;;9.52;2.20;;;4.10;99.90;;;;;;5060151;28;20114;-73
2022/01/20 04:39:21;;;;;;;9.90;1.85;;;4.00;99.90;;;;;;5047343;28;20046;-73
2022/01/20 04:41:48;;;;;;;13.43;2.15;;;4.00;99.90;;;;;;5051039;28;20032;-73
2022/01/20 04:44:20;;;;;;;10.90;1.88;;;3.90;99.90;;;;;;5061866;28;20468;-73
2022/01/20 04:47:17;;;;;;;13.43;1.95;;;3.80;99.90;;;;;;5081800;28;20044;-73
2022/01/20 04:57:47;;;;;;;13.60;2.15;;;3.50;99.90;;;;;;5061045;28;20047;-74
2022/01/20 05:00:14;;;;;;;11.23;1.80;;;3.50;99.90;;;;;;5050669;28;20041;-74
2022/01/20 05:02:39;;;;;;;11.45;1.50;;;3.50;99.90;;;;;;5061321;28;20789;-74
2022/01/20 05:05:08;;;;;;;10.18;1.80;;;3.50;99.90;;;;;;5068150;28;20040;-74
2022/01/20 05:07:33;;;;;;;9.85;1.52;;;3.50;99.90;;;;;;5070146;28;20040;-74
2022/01/20 05:09:59;;;;;;;7.65;1.42;;;3.30;99.90;;;;;;5071310;28;20037;-74
2022/01/20 05:12:36;;;;;;;5.03;1.00;;;3.00;99.90;;;;;;5070429;28;20040;-73
2022/01/20 05:15:01;;;;;;;2.65;0.68;;;2.90;99.90;;;;;;5060265;28;20149;-73
2022/01/20 05:17:27;;;;;;;3.87;0.80;;;2.80;99.90;;;;;;5060302;28;20136;-73
2022/01/20 05:19:52;;;;;;;4.23;0.80;;;2.70;99.90;;;;;;5069263;28;20318;-73
2022/01/20 05:22:18;;;;;;;5.88;1.10;;;2.70;99.90;;;;;;5037233;28;20042;-73
2022/01/20 05:24:46;;;;;;;2.92;0.80;;;2.70;99.90;;;;;;5065875;28;20041;-73
2022/01/20 05:27:11;;;;;;;6.40;1.05;;;2.70;99.90;;;;;;5068522;28;20051;-73
2022/01/20 05:29:37;;;;;;;6.13;1.13;;;2.70;99.90;;;;;;5053274;28;20384;-73
2022/01/20 05:32:03;;;;;;;5.50;1.20;;;2.60;99.90;;;;;;5049489;28;20380;-73
2022/01/20 05:34:29;;;;;;;9.02;1.73;;;2.70;99.90;;;;;;5034101;28;20317;-74
2022/01/20 05:36:54;;;;;;;9.57;1.70;;;2.60;99.90;;;;;;5067722;28;20476;-73
2022/01/20 05:39:20;;;;;;;12.48;2.00;;;2.60;99.90;;;;;;5067750;28;20364;-74
2022/01/20 05:41:46;;;;;;;11.73;1.83;;;2.60;99.90;;;;;;5049944;28;20106;-73
2022/01/20 05:44:12;;;;;;;12.85;2.13;;;2.70;99.90;;;;;;5042013;28;20480;-74
2022/01/20 05:46:45;;;;;;;15.45;2.63;;;2.70;99.90;;;;;;5067918;28;20044;-74
2022/01/20 05:49:10;;;;;;;12.13;2.28;;;2.70;99.90;;;;;;5066827;28;20142;-74
2022/01/20 05:51:40;;;;;;;11.00;2.30;;;2.90;99.90;;;;;;5066360;28;20048;-74
2022/01/20 05:54:07;;;;;;;8.77;1.80;;;2.90;99.90;;;;;;5067762;28;20550;-74
2022/01/20 05:56:33;;;;;;;10.68;1.90;;;3.00;99.90;;;;;;5093107;28;20098;-74
2022/01/20 05:58:59;;;;;;;10.20;1.75;;;3.00;99.90;;;;;;5089541;28;20036;-74
2022/01/20 06:01:26;;;;;;;8.55;1.83;;;3.10;99.90;;;;;;5066291;28;20039;-74
2022/01/20 06:03:52;;;;;;;;;;;3.20;99.90;;;;;;5046177;28;20073;-73
2022/01/20 06:06:17;;;;;;;10.63;1.92;;;3.30;99.90;;;;;;5060536;28;19956;-72
2022/01/20 06:08:44;;;;;;;11.25;1.98;;;3.40;99.90;;;;;;5065884;28;20048;-74
2022/01/20 06:11:10;;;;;;;16.40;2.35;;;3.40;99.90;;;;;;5059989;28;20075;-74
2022/01/20 06:13:36;;;;;;;15.52;2.35;;;3.50;99.90;;;;;;5044144;28;20486;-74
2022/01/20 06:16:03;;;;;;;14.93;2.15;;;3.50;99.90;;;;;;5048901;28;20045;-73
2022/01/20 06:18:29;;;;;;;15.95;2.97;;;3.60;99.90;;;;;;5062112;28;20532;-73
2022/01/20 06:20:55;;;;;;;16.70;2.17;;;3.60;99.90;;;;;;5068654;28;20108;-74
2022/01/20 06:23:22;;;;;;;14.15;2.45;;;3.50;99.90;;;;;;5063530;28;20040;-74
2022/01/20 06:25:49;;;;;;;12.73;2.47;;;3.50;99.90;;;;;;5066708;28;20438;-74
2022/01/20 06:28:15;;;;;;;11.77;2.50;;;3.50;99.90;;;;;;5065914;28;20048;-74
2022/01/20 06:30:41;;;;;;;10.70;2.30;;;3.40;99.90;;;;;;5032614;28;20131;-73
2022/01/20 06:33:07;;;;;;;16.98;2.92;;;3.50;99.90;;;;;;5050856;28;20124;-73
2022/01/20 06:35:34;;;;;;;13.05;2.28;;;3.10;99.90;;;;;;5065637;28;20048;-74
2022/01/20 06:38:00;;;;;;;14.43;2.20;;;2.60;99.90;;;;;;5067689;28;20052;-73
2022/01/20 06:40:26;;;;;;;14.15;2.38;;;2.40;99.90;;;;;;5049358;28;20089;-73
2022/01/20 06:42:52;;;;;;;12.65;2.22;;;2.30;99.90;;;;;;5095200;28;20514;-73
2022/01/20 06:45:19;;;;;;;15.55;2.83;;;2.30;99.90;;;;;;5064202;28;20044;-73
2022/01/20 06:47:45;;;;;;;8.90;1.50;;;2.30;99.90;;;;;;5065881;28;20099;-73
2022/01/20 06:50:12;;;;;;;11.88;2.00;;;2.30;99.90;;;;;;5067007;28;20129;-73
2022/01/20 06:52:39;;;;;;;10.20;1.65;;;2.40;99.90;;;;;;5061436;28;20177;-73
2022/01/20 06:55:10;;;;;;;13.63;1.90;;;2.40;99.90;;;;;;5062551;28;20040;-73
2022/01/20 06:57:37;;;;;;;10.82;1.63;;;2.40;99.90;;;;;;5067642;28;20051;-73
2022/01/20 07:00:09;;;;;;;12.85;2.40;;;2.30;99.90;;;;;;5034305;28;20029;-73
2022/01/20 07:02:35;;;;;;;12.48;2.35;;;2.30;99.90;;;;;;5068594;28;20044;-73
2022/01/20 07:05:01;;;;;;;11.48;1.80;;;2.30;99.90;;;;;;5069231;28;20407;-74
2022/01/20 07:07:26;;;;;;;13.40;1.90;;;2.30;99.90;;;;;;5061225;28;20049;-74
2022/01/20 07:09:52;;;;;;;14.55;1.92;;;2.30;99.90;;;;;;5062986;28;20048;-73
2022/01/20 07:12:18;;;;;;;14.43;2.20;;;2.30;99.90;;;;;;5057923;28;20681;-74
2022/01/20 07:14:44;;;;;;;13.15;2.65;;;2.40;99.90;;;;;;5062761;28;20032;-74
2022/01/20 07:17:09;;;;;;;10.48;1.90;;;2.60;99.90;;;;;;5057109;28;20484;-73
2022/01/20 07:19:35;;;;;;;12.18;2.03;;;2.70;99.90;;;;;;5061918;28;20384;-74
2022/01/20 07:22:01;;;;;;;9.90;1.83;;;2.60;99.90;;;;;;5055849;28;20069;-74
2022/01/20 07:24:28;;;;;;;11.70;1.98;;;2.50;99.90;;;;;;5056922;28;20037;-72
2022/01/20 07:26:54;;;;;;;8.98;1.65;;;2.50;99.90;;;;;;5066967;28;20446;-73
2022/01/20 07:29:20;;;;;;;7.17;1.57;;;2.50;99.90;;;;;;5046537;28;20041;-73
2022/01/20 07:31:46;;;;;;;10.25;1.90;;;2.40;99.90;;;;;;5045757;28;20299;-72
2022/01/20 07:34:12;;;;;;;14.13;1.92;;;2.50;99.90;;;;;;5053607;28;20036;-73
2022/01/20 07:36:37;;;;;;;10.75;2.28;;;2.50;99.90;;;;;;5068373;28;20218;-75
2022/01/20 07:39:04;;;;;;;8.93;1.98;;;2.50;99.90;;;;;;5034493;28;20123;-73
2022/01/20 07:41:30;;;;;;;13.98;2.50;;;2.50;99.90;;;;;;5045682;28;20155;-71
2022/01/20 07:43:56;;;;;;;10.45;1.98;;;2.50;99.90;;;;;;5062030;28;20043;-74
2022/01/20 07:46:21;;;;;;;15.18;2.30;;;2.60;99.90;;;;;;5047694;28;20044;-73
2022/01/20 07:48:47;;;;;;;17.27;1.93;;;2.70;99.90;;;;;;5042343;28;20123;-73
2022/01/20 07:51:15;;;;;;;14.35;2.72;;;2.70;99.90;;;;;;5067491;28;20352;-74
2022/01/20 07:53:40;;;;;;;12.23;2.05;;;2.80;99.90;;;;;;5047337;28;20041;-73
2022/01/20 07:56:07;;;;;;;12.52;2.20;;;2.70;99.90;;;;;;5060776;28;20037;-73
2022/01/20 07:58:33;;;;;;;;;;;2.60;99.90;;;;;;5052155;28;20059;-73
2022/01/20 08:00:59;;;;;;;10.35;1.90;;;2.50;99.90;;;;;;5060734;28;19924;-73
2022/01/20 08:03:25;;;;;;;14.10;1.75;;;2.50;99.90;;;;;;5063114;28;20344;-73
2022/01/20 08:05:51;;;;;;;9.02;1.85;;;2.50;99.90;;;;;;5058724;28;20056;-74
2022/01/20 08:08:16;;;;;;;10.52;1.77;;;2.50;99.90;;;;;;5062398;28;20037;-73
2022/01/20 08:10:42;;;;;;;9.30;1.90;;;2.50;99.90;;;;;;5066302;28;20060;-73
2022/01/20 08:13:08;;;;;;;16.20;2.53;;;2.60;99.90;;;;;;5070342;28;20472;-73
2022/01/20 08:15:34;;;;;;;14.82;2.53;;;2.60;99.90;;;;;;5048317;28;20040;-73
2022/01/20 08:17:59;;;;;;;21.17;2.70;;;2.50;99.90;;;;;;5065723;28;20102;-73
2022/01/20 08:20:25;;;;;;;20.27;2.90;;;2.70;99.90;;;;;;5065489;28;20033;-74
2022/01/20 08:22:51;;;;;;;15.27;2.13;;;2.70;99.90;;;;;;5068143;28;20036;-75
2022/01/20 08:25:19;;;;;;;12.10;2.08;;;2.90;99.90;;;;;;5050583;28;20565;-73
2022/01/20 08:27:46;;;;;;;7.20;1.52;;;3.10;99.90;;;;;;5057943;28;20032;-74
2022/01/20 08:30:16;;;;;;;14.32;2.65;;;3.10;99.90;;;;;;5058590;28;20056;-73
2022/01/20 08:32:43;;;;;;;9.15;1.85;;;3.20;99.90;;;;;;5055522;28;20063;-73
2022/01/20 08:35:10;;;;;;;9.48;1.55;;;3.20;99.90;;;;;;5061134;28;20103;-73
2022/01/20 08:37:42;;;;;;;11.52;1.77;;;3.20;99.90;;;;;;5072888;28;20048;-74
2022/01/20 08:40:12;;;;;;;9.88;1.50;;;3.30;99.90;;;;;;5061456;28;20037;-73
2022/01/20 08:42:40;;;;;;;12.18;2.08;;;3.40;99.90;;;;;;5041266;28;20024;-74
2022/01/20 08:45:07;;;;;;;7.63;1.27;;;3.50;99.90;;;;;;5062400;28;20048;-75
2022/01/20 08:47:33;;;;;;;8.27;1.55;;;3.70;99.90;;;;;;5048921;28;20127;-74
2022/01/20 08:49:59;;;;;;;7.97;1.75;;;3.30;99.90;;;;;;5058233;28;20182;-74
2022/01/20 08:52:28;;;;;;;6.47;1.33;;;2.90;99.90;;;;;;5062783;28;20395;-74
2022/01/20 08:54:58;;;;;;;6.50;1.52;;;2.60;99.90;;;;;;5068314;28;20048;-77
2022/01/20 08:57:24;;;;;;;7.30;1.20;;;2.40;99.90;;;;;;5062138;28;20209;-77
2022/01/20 08:59:50;;;;;;;4.28;0.80;;;2.20;99.90;;;;;;5031568;28;20374;-76
2022/01/20 09:02:17;;;;;;;2.42;0.90;;;2.10;99.90;;;;;;5045144;28;20155;-77
2022/01/20 09:04:43;;;;;;;6.72;0.85;;;2.10;99.90;;;;;;5066520;28;20105;-76
2022/01/20 09:07:09;;;;;;;7.13;1.23;;;2.20;99.90;;;;;;5054663;28;20037;-79
2022/01/20 09:09:41;;;;;;;4.45;1.20;;;2.30;99.90;;;;;;5052596;28;20198;-79
2022/01/20 09:15:27;;;;;;;6.90;1.30;;;2.40;99.90;;;;;;5064141;28;20056;-79
2022/01/20 09:15:30;;;;;;;6.65;1.17;;;2.70;99.90;;;;;;5069381;28;20463;-80
2022/01/20 09:17:59;;;;;;;7.68;1.23;;;2.90;99.90;;;;;;5067226;28;20330;-80
2022/01/20 09:20:25;;;;;;;8.85;1.67;;;2.90;99.90;;;;;;5068138;28;20048;-79
2022/01/20 09:22:52;;;;;;;8.07;1.20;;;3.00;99.90;;;;;;5093339;28;20044;-80
2022/01/20 09:25:18;;;;;;;9.98;1.55;;;2.90;99.90;;;;;;5072097;28;20040;-80
2022/01/20 09:27:44;;;;;;;;;;;2.90;99.90;;;;;;5055168;28;20274;-79
2022/01/20 09:30:17;;;;;;;6.85;1.30;;;2.80;99.90;;;;;;5049843;28;20022;-79
2022/01/20 09:32:43;;;;;;;6.18;1.30;;;2.70;99.90;;;;;;5055900;28;20037;-79
2022/01/20 09:35:08;;;;;;;8.82;1.92;;;2.70;99.90;;;;;;5065443;28;20051;-79
2022/01/20 09:37:36;;;;;;;10.43;1.85;;;2.70;99.90;;;;;;5065383;28;20064;-78
2022/01/20 09:40:02;;;;;;;11.32;1.85;;;2.80;99.90;;;;;;5065136;28;20044;-79
2022/01/20 09:42:28;;;;;;;8.48;1.98;;;3.00;99.90;;;;;;5048250;28;20474;-78
2022/01/20 09:44:54;;;;;;;10.73;1.88;;;3.20;99.90;;;;;;5056775;28;20070;-78
2022/01/20 09:47:20;;;;;;;11.02;2.15;;;3.30;99.90;;;;;;5037176;28;20079;-78
2022/01/20 09:49:46;;;;;;;10.03;1.57;;;3.60;99.90;;;;;;5065094;28;20080;-78
2022/01/20 09:52:12;;;;;;;11.77;1.92;;;3.80;99.90;;;;;;5066531;28;20298;-80
2022/01/20 09:54:38;;;;;;;8.27;1.38;;;4.00;99.90;;;;;;5051051;28;20032;-80
2022/01/20 09:57:04;;;;;;;;;;;4.00;99.90;;;;;;5067890;28;20070;-80
2022/01/20 09:59:31;;;;;;;8.90;1.80;;;3.90;99.90;;;;;;5051847;28;19916;-81
2022/01/20 10:01:58;;;;;;;9.02;1.73;;;3.90;99.90;;;;;;5063546;28;20041;-78
2022/01/20 10:04:30;;;;;;;10.93;1.73;;;4.00;99.90;;;;;;5063159;28;20033;-83
2022/01/20 10:06:59;;;;;;;8.15;1.63;;;4.00;99.90;;;;;;5049084;28;20044;-79
2022/01/20 10:09:28;;;;;;;9.75;2.25;;;4.10;99.90;;;;;;5048676;28;20048;-80
2022/01/20 10:11:53;;;;;;;8.48;1.90;;;4.10;99.90;;;;;;5046313;28;20070;-76
2022/01/20 10:14:19;;;;;;;6.47;1.20;;;4.20;99.90;;;;;;5060544;28;20036;-79
2022/01/20 10:16:45;;;;;;;8.82;1.23;;;4.10;99.90;;;;;;5071223;28;20035;-80
2022/01/20 10:19:30;;;;;;;5.72;1.00;;;4.00;99.90;;;;;;5052290;28;20468;-79
2022/01/20 10:21:56;;;;;;;5.25;0.90;;;4.00;99.90;;;;;;5047202;28;20396;-78
2022/01/20 10:24:25;;;;;;;7.47;1.30;;;3.80;99.90;;;;;;5069251;28;20062;-79
2022/01/20 10:26:51;;;;;;;6.55;1.38;;;3.70;99.90;;;;;;5078279;28;20039;-78
2022/01/20 10:29:17;;;;;;;7.45;1.60;;;3.60;99.90;;;;;;5051648;28;20060;-78
2022/01/20 10:31:46;;;;;;;12.68;2.25;;;3.60;99.90;;;;;;5063306;28;20044;-77
2022/01/20 10:34:28;;;;;;;13.40;1.77;;;3.80;99.90;;;;;;5070781;28;20128;-79
2022/01/20 10:36:55;;;;;;;7.50;1.80;;;3.90;99.90;;;;;;5090113;28;20063;-78
2022/01/20 10:39:32;;;;;;;11.88;1.60;;;4.00;99.90;;;;;;5031163;28;20447;-77
2022/01/20 10:42:00;;;;;;;13.47;1.73;;;4.10;99.90;;;;;;5076456;28;20083;-77
2022/01/20 10:44:26;;;;;;;10.43;1.60;;;4.10;99.90;;;;;;5063897;28;20279;-77
2022/01/20 10:46:54;;;;;;;7.65;1.20;;;4.20;99.90;;;;;;5051094;28;20051;-78
2022/01/20 10:49:21;;;;;;;5.47;1.05;;;4.20;99.90;;;;;;5044787;28;20140;-77
2022/01/20 10:52:07;;;;;;;8.63;1.23;;;4.20;99.90;;;;;;5059676;28;20052;-76
2022/01/20 10:54:41;;;;;;;7.63;1.30;;;4.20;99.90;;;;;;5065151;28;20040;-76
2022/01/20 10:57:09;;;;;;;9.00;1.70;;;4.30;99.90;;;;;;5061472;28;20092;-77
2022/01/20 10:59:53;;;;;;;10.05;1.65;;;4.30;99.90;;;;;;5065930;28;20040;-77
2022/01/20 11:02:21;;;;;;;7.13;1.48;;;4.40;99.90;;;;;;5064112;28;20136;-77
2022/01/20 11:04:48;;;;;;;13.25;2.10;;;4.70;99.90;;;;;;5091955;28;20378;-77
2022/01/20 11:07:14;;;;;;;8.52;1.88;;;4.80;99.90;;;;;;5063627;28;20067;-76
2022/01/20 11:09:43;;;;;;;10.18;2.47;;;4.90;99.90;;;;;;5067097;28;20041;-77
2022/01/20 11:12:14;;;;;;;12.73;1.83;;;4.70;99.90;;;;;;5050819;28;20132;-76
2022/01/20 11:14:42;;;;;;;11.70;2.20;;;4.20;99.90;;;;;;5066604;28;20032;-76
2022/01/20 11:17:09;;;;;;;11.23;2.20;;;4.00;99.90;;;;;;5068554;28;20549;-76
2022/01/20 11:19:39;;;;;;;10.68;1.80;;;3.80;99.90;;;;;;5069453;28;20105;-77
2022/01/20 11:22:10;;;;;;;9.45;1.92;;;3.70;99.90;;;;;;5068872;28;20210;-77
2022/01/20 11:24:36;;;;;;;11.90;2.00;;;3.60;99.90;;;;;;5067497;28;20040;-77
2022/01/20 11:27:02;;;;;;;8.75;1.98;;;3.60;99.90;;;;;;5062691;28;20101;-76
2022/01/20 11:29:42;;;;;;;11.65;1.80;;;3.80;99.90;;;;;;5069588;28;20484;-75
2022/01/20 11:32:20;;;;;;;12.98;2.00;;;4.20;99.90;;;;;;5050997;28;20048;-76
2022/01/20 11:35:00;;;;;;;11.60;2.13;;;4.30;99.90;;;;;;5075733;28;20047;-77
2022/01/20 11:37:28;;;;;;;8.48;1.63;;;4.10;99.90;;;;;;5081173;28;20067;-78
2022/01/20 11:40:06;;;;;;;10.93;2.00;;;3.50;99.90;;;;;;5067082;28;20032;-76
2022/01/20 11:42:32;;;;;;;11.95;2.50;;;3.00;99.90;;;;;;5098552;28;20044;-78
2022/01/20 11:44:57;;;;;;;13.43;2.03;;;2.60;99.90;;;;;;5062734;28;20040;-78
2022/01/20 11:47:33;;;;;;;9.32;2.22;;;2.40;99.90;;;;;;5065361;28;20043;-80
2022/01/20 11:49:59;;;;;;;12.95;2.95;;;2.40;99.90;;;;;;5076129;28;20053;-77
2022/01/20 11:52:28;;;;;;;12.68;2.08;;;2.30;99.90;;;;;;5058715;28;20048;-78
2022/01/20 11:54:54;;;;;;;10.05;1.90;;;2.30;99.90;;;;;;5049722;28;20075;-77
2022/01/20 11:57:19;;;;;;;12.85;1.67;;;2.50;99.90;;;;;;5065594;28;20080;-77
2022/01/20 11:59:47;;;;;;;10.53;1.90;;;2.90;99.90;;;;;;5058215;28;20041;-77
2022/01/20 12:02:26;;;;;;;11.05;1.80;;;3.30;99.90;;;;;;5067156;28;20320;-77
2022/01/20 12:04:52;;;;;;;11.80;2.20;;;3.60;99.90;;;;;;5070358;28;20051;-78
2022/01/20 12:07:29;;;;;;;12.50;1.95;;;4.00;99.90;;;;;;5061930;28;20045;-77
2022/01/20 12:10:15;;;;;;;;;;;4.10;99.90;;;;;;5067637;28;20537;-78
2022/01/20 12:12:41;;;;;;;13.10;2.20;;;4.10;99.90;;;;;;5102018;28;20019;-78
2022/01/20 12:15:08;;;;;;;;;;;4.00;99.90;;;;;;5075628;28;20456;-79
2022/01/20 12:17:34;;;;;;;13.77;2.25;;;3.90;99.90;;;;;;5079181;28;19963;-77
2022/01/20 12:20:00;;;;;;;17.58;2.88;;;3.80;99.90;;;;;;5072694;28;20142;-77
2022/01/20 12:22:25;;;;;;;15.32;2.50;;;3.80;99.90;;;;;;5071467;28;20131;-77
2022/01/20 12:24:53;;;;;;;17.52;2.88;;;3.70;99.90;;;;;;5071220;28;20040;-76
2022/01/20 12:27:21;;;;;;;14.23;2.20;;;3.80;99.90;;;;;;5067675;28;20045;-77
2022/01/20 12:29:47;;;;;;;13.93;2.35;;;4.00;99.90;;;;;;5052716;28;20051;-77
2022/01/20 12:32:15;;;;;;;13.55;2.30;;;4.10;99.90;;;;;;5055021;28;20040;-77
2022/01/20 12:34:42;;;;;;;12.02;2.65;;;4.10;99.90;;;;;;5072579;28;20056;-77
2022/01/20 12:37:09;;;;;;;11.60;1.83;;;4.00;99.90;;;;;;5071154;28;20109;-78
2022/01/20 12:39:37;;;;;;;17.25;3.05;;;3.90;99.90;;;;;;5067644;28;20045;-77
2022/01/20 12:42:09;;;;;;;14.45;2.63;;;3.90;99.90;;;;;;5051481;28;20476;-78
2022/01/20 12:45:00;;;;;;;14.27;2.38;;;3.90;99.90;;;;;;5072184;28;20040;-78
2022/01/20 12:47:28;;;;;;;9.73;2.28;;;4.10;99.90;;;;;;5071577;28;20519;-77
2022/01/20 12:49:56;;;;;;;12.20;2.50;;;4.30;99.90;;;;;;5072851;28;20449;-78
2022/01/20 12:52:22;;;;;;;11.57;2.03;;;4.40;99.90;;;;;;5071414;28;20036;-77
2022/01/20 12:54:49;;;;;;;16.80;2.50;;;4.50;99.90;;;;;;5071128;28;20503;-77
2022/01/20 12:57:15;;;;;;;13.18;2.78;;;4.70;99.90;;;;;;5054656;28;20182;-79
2022/01/20 12:59:43;;;;;;;13.05;2.22;;;4.70;99.90;;;;;;5069663;28;20041;-78
2022/01/20 13:02:24;;;;;;;15.52;2.80;;;4.70;99.90;;;;;;5072104;28;20118;-77
2022/01/20 13:04:59;;;;;;;11.15;2.10;;;4.70;99.90;;;;;;5069513;28;20476;-77
2022/01/20 13:07:25;;;;;;;15.57;2.85;;;4.60;99.90;;;;;;5071004;28;20075;-81
2022/01/20 13:10:04;;;;;;;8.27;1.55;;;4.40;99.90;;;;;;5055622;28;20075;-76
2022/01/20 13:12:35;;;;;;;5.47;1.38;;;4.00;99.90;;;;;;5070716;28;20036;-76
2022/01/20 13:15:03;;;;;;;4.60;0.90;;;3.60;99.90;;;;;;5093719;28;20123;-76
2022/01/20 13:17:31;;;;;;;5.07;0.80;;;3.40;99.90;;;;;;5071781;28;20500;-76
2022/01/20 13:19:59;;;;;;;5.00;0.80;;;3.40;99.90;;;;;;5055044;28;20084;-76
2022/01/20 13:22:38;;;;;;;3.40;0.77;;;3.40;99.90;;;;;;5066879;28;20068;-77
2022/01/20 13:25:26;;;;;;;3.92;1.15;;;3.50;99.90;;;;;;5068704;28;20128;-76
2022/01/20 13:27:55;;;;;;;4.72;1.02;;;3.70;99.90;;;;;;5044400;28;20072;-76
2022/01/20 13:30:36;;;;;;;10.02;1.33;;;3.80;99.90;;;;;;5073581;28;20102;-76
2022/01/20 13:33:04;;;;;;;7.47;1.55;;;4.00;99.90;;;;;;5066992;28;20152;-77
2022/01/20 13:35:41;;;;;;;11.77;2.10;;;4.20;99.90;;;;;;5051750;28;20500;-76
2022/01/20 13:38:08;;;;;;;9.25;1.60;;;4.20;99.90;;;;;;5071980;28;20051;-77
2022/01/20 13:40:39;;;;;;;7.28;1.75;;;4.00;99.90;;;;;;5067321;28;20068;-76
2022/01/20 13:45:41;;;;;;;11.48;1.67;;;3.60;99.90;;;;;;5085494;28;20044;-76
2022/01/20 13:48:09;;;;;;;10.93;1.80;;;3.60;99.90;;;;;;5052483;28;20094;-76
2022/01/20 13:50:36;;;;;;;12.07;2.35;;;3.70;99.90;;;;;;5048970;28;20060;-76
2022/01/20 13:53:12;;;;;;;11.15;2.00;;;3.70;99.90;;;;;;5069971;28;20051;-76
2022/01/20 13:55:39;;;;;;;10.90;1.65;;;3.70;99.90;;;;;;5047762;28;20040;-76
2022/01/20 13:58:07;;;;;;;12.68;1.85;;;3.70;99.90;;;;;;5064065;28;20131;-78
2022/01/20 14:00:35;;;;;;;11.07;1.90;;;3.70;99.90;;;;;;5065321;28;20067;-75